地図

経路データ

SID SEASON NUMBER BASIN SUBBASIN NAME ISO_TIME NATURE LAT LON WMO_WIND WMO_PRES WMO_AGENCY TRACK_TYPE DIST2LAND LANDFALL IFLAG USA_AGENCY USA_ATCF_ID USA_LAT USA_LON USA_RECORD USA_STATUS USA_WIND USA_PRES USA_SSHS USA_R34_NE USA_R34_SE USA_R34_SW USA_R34_NW USA_R50_NE USA_R50_SE USA_R50_SW USA_R50_NW USA_R64_NE USA_R64_SE USA_R64_SW USA_R64_NW USA_POCI USA_ROCI USA_RMW USA_EYE TOKYO_LAT TOKYO_LON TOKYO_GRADE TOKYO_WIND TOKYO_PRES TOKYO_R50_DIR TOKYO_R50_LONG TOKYO_R50_SHORT TOKYO_R30_DIR TOKYO_R30_LONG TOKYO_R30_SHORT TOKYO_LAND CMA_LAT CMA_LON CMA_CAT CMA_WIND CMA_PRES HKO_LAT HKO_LON HKO_CAT HKO_WIND HKO_PRES NEWDELHI_LAT NEWDELHI_LON NEWDELHI_GRADE NEWDELHI_WIND NEWDELHI_PRES NEWDELHI_CI NEWDELHI_DP NEWDELHI_POCI REUNION_LAT REUNION_LON REUNION_TYPE REUNION_WIND REUNION_PRES REUNION_TNUM REUNION_CI REUNION_RMW REUNION_R34_NE REUNION_R34_SE REUNION_R34_SW REUNION_R34_NW REUNION_R50_NE REUNION_R50_SE REUNION_R50_SW REUNION_R50_NW REUNION_R64_NE REUNION_R64_SE REUNION_R64_SW REUNION_R64_NW BOM_LAT BOM_LON BOM_TYPE BOM_WIND BOM_PRES BOM_TNUM BOM_CI BOM_RMW BOM_R34_NE BOM_R34_SE BOM_R34_SW BOM_R34_NW BOM_R50_NE BOM_R50_SE BOM_R50_SW BOM_R50_NW BOM_R64_NE BOM_R64_SE BOM_R64_SW BOM_R64_NW BOM_ROCI BOM_POCI BOM_EYE BOM_POS_METHOD BOM_PRES_METHOD NADI_LAT NADI_LON NADI_CAT NADI_WIND NADI_PRES WELLINGTON_LAT WELLINGTON_LON WELLINGTON_WIND WELLINGTON_PRES DS824_LAT DS824_LON DS824_STAGE DS824_WIND DS824_PRES TD9636_LAT TD9636_LON TD9636_STAGE TD9636_WIND TD9636_PRES TD9635_LAT TD9635_LON TD9635_WIND TD9635_PRES TD9635_ROCI NEUMANN_LAT NEUMANN_LON NEUMANN_CLASS NEUMANN_WIND NEUMANN_PRES MLC_LAT MLC_LON MLC_CLASS MLC_WIND MLC_PRES USA_GUST BOM_GUST BOM_GUST_PER REUNION_GUST REUNION_GUST_PER USA_SEAHGT USA_SEARAD_NE USA_SEARAD_SE USA_SEARAD_SW USA_SEARAD_NW STORM_SPEED STORM_DIR
1961051S12116 1961 21 SI WA NOT_NAMED 1961-02-20 00:00:00 NR -12.0000 116.200 main 336 336 O_____________ jtwc_sh SH211961 -12.0000 116.200 -1 7 223
1961051S12116 1961 21 SI WA NOT_NAMED 1961-02-20 01:00:00 NR -12.0814 116.122 1002 bom main 348 348 P_____O_______ SH211961 -12.0221 116.183 -1 -12.2000 116.000 1002 3 221
1961051S12116 1961 21 SI WA NOT_NAMED 1961-02-20 03:00:00 NR -12.0985 116.110 main 348 348 P_____P_______ SH211961 -12.0625 116.150 -1 -12.1524 116.050 0 0
1961051S12116 1961 21 SI WA NOT_NAMED 1961-02-20 06:00:00 TS -12.1070 116.108 main 348 348 O_____P_____O_ jtwc_sh SH211961 -12.1000 116.100 -1 -12.0853 116.121 -12.2000 116.100 TC 30 1000 0 0
1961051S12116 1961 21 SI WA NOT_NAMED 1961-02-20 09:00:00 TS -12.0918 116.112 main 348 348 P_____P_____P_ SH211961 -12.1000 116.050 -1 -12.0295 116.180 -12.2000 116.100 TC 30 999 0 0
1961051S12116 1961 21 SI WA NOT_NAMED 1961-02-20 12:00:00 TS -12.0879 116.107 main 348 348 O_____P_____O_ jtwc_sh SH211961 -12.1000 116.000 -1 -11.9916 116.220 -12.2000 116.100 TC 30 999 0 0
1961051S12116 1961 21 SI WA NOT_NAMED 1961-02-20 15:00:00 TS -12.1095 116.095 main 348 348 P_____P_____P_ SH211961 -12.1500 115.950 -1 -11.9785 116.234 -12.2000 116.100 TC 32 998 1 217
1961051S12116 1961 21 SI WA NOT_NAMED 1961-02-20 18:00:00 TS -12.1323 116.072 main 348 348 O_____P_____O_ jtwc_sh SH211961 -12.2000 115.900 -1 -11.9969 116.215 -12.2000 116.100 TC 35 997 1 239
1961051S12116 1961 21 SI WA NOT_NAMED 1961-02-20 21:00:00 TS -12.1386 116.052 main 348 348 P_____P_____P_ SH211961 -12.1850 115.880 -1 -12.0535 116.155 -12.1775 116.122 TC 37 996 1 239
1961051S12116 1961 21 SI WA NOT_NAMED 1961-02-21 00:00:00 TS -12.1862 115.984 main 361 361 O_____P__O__O_ jtwc_sh SH211961 -12.2000 115.800 -1 -12.1550 116.048 -12.2000 116.000 TC 40 995 -12.2000 116.100 TC 40 995 2 233
1961051S12116 1961 21 SI WA NOT_NAMED 1961-02-21 01:00:00 TS -12.2282 115.932 995 bom main 362 362 P_____O__P__P_ SH211961 -12.2303 115.740 -1 -12.2000 116.000 995 -12.2818 115.899 TC -12.2276 116.072 TC 40 995 5 230
1961051S12116 1961 21 SI WA NOT_NAMED 1961-02-21 03:00:00 TS -12.3396 115.794 main 375 375 P_____P__P__P_ SH211961 -12.3200 115.580 -1 -12.3073 115.886 -12.4451 115.696 TC -12.3125 115.987 TC 40 995 6 230
1961051S12116 1961 21 SI WA NOT_NAMED 1961-02-21 06:00:00 TS -12.5485 115.544 main 404 404 O_____P__P__O_ jtwc_sh SH211961 -12.5000 115.300 -1 -12.5057 115.677 -12.6881 115.400 TC -12.5000 115.800 TC 40 995 7 229
1961051S12116 1961 21 SI WA NOT_NAMED 1961-02-21 09:00:00 TS -12.7696 115.291 main 442 442 P_____P__P__P_ SH211961 -12.6775 115.050 -1 -12.7389 115.433 -12.9271 115.118 TC -12.7350 115.565 TC 40 995 7 227
1961051S12116 1961 21 SI WA NOT_NAMED 1961-02-21 12:00:00 TS -13.0140 115.031 main 470 470 O_____P__P__O_ jtwc_sh SH211961 -12.9000 114.800 -1 -12.9954 115.167 -13.1604 114.859 TC -13.0000 115.300 TC 40 995 7 225
1961051S12116 1961 21 SI WA NOT_NAMED 1961-02-21 15:00:00 TS -13.2769 114.773 main 504 504 P_____P__P__P_ SH211961 -13.2000 114.528 -1 -13.2639 114.893 -13.3860 114.629 TC -13.2575 115.043 TC 40 995 7 223
1961051S12116 1961 21 SI WA NOT_NAMED 1961-02-21 18:00:00 TS -13.5338 114.541 main 526 526 O_____P__P__O_ jtwc_sh SH211961 -13.5000 114.300 -1 -13.5330 114.625 -13.6023 114.438 TC -13.5000 114.800 TC 40 995 6 220
1961051S12116 1961 21 SI WA NOT_NAMED 1961-02-21 21:00:00 TS -13.7610 114.356 main 560 560 P_____P__P__P_ SH211961 -13.7300 114.170 -1 -13.7915 114.377 -13.8076 114.292 TC -13.7150 114.585 TC 40 995 5 217
1961051S12116 1961 21 SI WA NOT_NAMED 1961-02-22 00:00:00 TS -13.9570 114.215 main 584 584 O_____P__O__O_ jtwc_sh SH211961 -13.9000 114.100 -1 -14.0280 114.162 -14.0000 114.200 TC 40 995 -13.9000 114.400 TC 40 995 5 215
1961051S12116 1961 21 SI WA NOT_NAMED 1961-02-22 01:00:00 TS -14.0154 114.173 995 bom main 584 584 P_____O__P__P_ SH211961 -13.9447 114.075 -1 -14.1000 114.100 995 -14.0610 114.182 TC -13.9557 114.336 TC 40 995 4 210
1961051S12116 1961 21 SI WA NOT_NAMED 1961-02-22 03:00:00 TS -14.1108 114.128 main 596 596 P_____P__P__P_ SH211961 -14.0150 114.035 -1 -14.1926 114.094 -14.1781 114.164 TC -14.0575 114.220 TC 40 995 3 198
1961051S12116 1961 21 SI WA NOT_NAMED 1961-02-22 06:00:00 TS -14.2378 114.100 main 607 607 O_____P__P__O_ jtwc_sh SH211961 -14.1000 114.000 -1 -14.3099 114.132 -14.3415 114.168 TC -14.2000 114.100 TC 40 995 3 181
1961051S12116 1961 21 SI WA NOT_NAMED 1961-02-22 09:00:00 TS -14.3641 114.118 main 629 629 P_____P__P__P_ SH211961 -14.2000 114.000 -1 -14.4091 114.197 -14.4899 114.190 TC -14.3575 114.085 TC 40 995 2 169
1961051S12116 1961 21 SI WA NOT_NAMED 1961-02-22 12:00:00 TS -14.4806 114.142 main 640 640 O_____P__P__O_ jtwc_sh SH211961 -14.3000 114.000 -1 -14.4992 114.261 -14.6231 114.208 TC -14.5000 114.100 TC 40 995 2 179
1961051S12116 1961 21 SI WA NOT_NAMED 1961-02-22 15:00:00 TS -14.5844 114.125 main 651 651 P_____P__P__P_ SH211961 -14.4000 113.950 -1 -14.5890 114.295 -14.7410 114.200 TC -14.6075 114.058 TC 40 995 2 195
1961051S12116 1961 21 SI WA NOT_NAMED 1961-02-22 18:00:00 TS -14.6827 114.078 main 662 662 O_____P__P__O_ jtwc_sh SH211961 -14.5000 113.900 -1 -14.6874 114.267 -14.8433 114.144 TC -14.7000 114.000 TC 40 995 2 205
1961051S12116 1961 21 SI WA NOT_NAMED 1961-02-22 21:00:00 TS -14.7776 114.034 main 675 675 P_____P__P__P_ SH211961 -14.5923 113.975 -1 -14.8033 114.150 -14.9297 114.018 TC -14.7849 113.995 TC 40 995 3 223
1961051S12116 1961 21 SI WA NOT_NAMED 1961-02-23 00:00:00 TS -14.8863 113.878 main 687 687 O_____P__O__O_ jtwc_sh SH211961 -14.7000 113.900 -1 -14.9454 113.911 -15.0000 113.800 TC 40 995 -14.9000 113.900 TC 40 995 4 239
1961051S12116 1961 21 SI WA NOT_NAMED 1961-02-23 01:00:00 TS -14.9298 113.770 995 bom main 688 688 P_____O__P__P_ SH211961 -14.7470 113.787 -1 -15.0000 113.800 995 -15.0169 113.664 TC -14.9552 113.828 TC 40 994 8 248
1961051S12116 1961 21 SI WA NOT_NAMED 1961-02-23 03:00:00 TS -15.0355 113.488 main 704 704 P_____P__P__P_ SH211961 -14.8501 113.455 -1 -15.1643 113.515 -15.0426 113.355 TC -15.0849 113.625 TC 40 994 10 251
1961051S12116 1961 21 SI WA NOT_NAMED 1961-02-23 06:00:00 TS -15.1943 112.953 main 719 719 O_____P__P__O_ jtwc_sh SH211961 -15.0000 112.800 -1 -15.4131 113.001 -15.0641 112.813 TC -15.3000 113.200 TC 40 993 11 254
1961051S12116 1961 21 SI WA NOT_NAMED 1961-02-23 09:00:00 TS -15.3423 112.357 main 744 740 P_____P__P__P_ SH211961 -15.1300 112.115 -1 -15.6165 112.414 -15.0704 112.204 TC -15.5524 112.695 TC 42 992 12 258
1961051S12116 1961 21 SI WA NOT_NAMED 1961-02-23 11:00:00 TS -15.4072 111.929 bom main 760 760 P_____O__P__P_ SH211961 -15.1864 111.636 -1 -15.7000 112.000 -15.0691 111.776 TC -15.6732 112.305 TC 44 991 13 263
1961051S12116 1961 21 SI WA NOT_NAMED 1961-02-23 12:00:00 TS -15.4184 111.711 main 766 766 O_____P__P__O_ jtwc_sh SH211961 -15.2000 111.400 -1 -15.7060 111.786 -15.0676 111.558 TC -15.7000 112.100 TC 45 991 13 273
1961051S12116 1961 21 SI WA NOT_NAMED 1961-02-23 15:00:00 TS -15.3678 111.054 main 786 777 P_____P__P__P_ SH211961 -15.1723 110.735 -1 -15.6418 111.110 -15.0623 110.905 TC -15.5949 111.465 TC 47 990 13 277
1961051S12116 1961 21 SI WA NOT_NAMED 1961-02-23 18:00:00 TS -15.2635 110.398 main 785 776 O_____P__P__O_ jtwc_sh SH211961 -15.1000 110.100 -1 -15.4930 110.417 -15.0611 110.275 TC -15.4000 110.800 TC 50 989 13 279
1961051S12116 1961 21 SI WA NOT_NAMED 1961-02-23 21:00:00 TS -15.1753 109.745 main 789 783 P_____P__P__P_ SH211961 -15.0426 109.432 -1 -15.3098 109.755 -15.0712 109.696 TC -15.2777 110.098 TC 50 988 12 277
1961051S12116 1961 21 SI WA NOT_NAMED 1961-02-24 00:00:00 TS -15.1108 109.193 main 789 789 O_____P__O__O_ jtwc_sh SH211961 -15.0000 108.900 -1 -15.1431 109.170 -15.1000 109.200 TC 45 990 -15.2000 109.500 TC 50 988 10 277
1961051S12116 1961 21 SI WA NOT_NAMED 1961-02-24 01:00:00 TS -15.0970 109.054 990 bom main 792 792 P_____O__P__P_ SH211961 -14.9915 108.782 -1 -15.1000 109.000 990 -15.1158 109.082 TC -15.1805 109.350 TC 50 987 7 273
1961051S12116 1961 21 SI WA NOT_NAMED 1961-02-24 03:00:00 TS -15.0944 108.836 main 799 799 P_____P__P__P_ SH211961 -14.9847 108.625 -1 -15.0785 108.730 -15.1522 108.871 TC -15.1622 109.118 TC 52 987 5 266
1961051S12116 1961 21 SI WA NOT_NAMED 1961-02-24 06:00:00 TS -15.1267 108.608 main 805 805 O_____P__P__O_ jtwc_sh SH211961 -15.0000 108.500 -1 -15.0873 108.419 -15.2194 108.612 TC -15.2000 108.900 TC 55 986 4 254
1961051S12116 1961 21 SI WA NOT_NAMED 1961-02-24 09:00:00 TS -15.2036 108.445 main 822 822 P_____P__P__P_ SH211961 -15.0350 108.385 -1 -15.1415 108.204 -15.3028 108.412 TC -15.3349 108.778 TC 57 983 3 235
1961051S12116 1961 21 SI WA NOT_NAMED 1961-02-24 12:00:00 TS -15.3100 108.333 main 836 836 O_____P__P__O_ jtwc_sh SH211961 -15.1000 108.300 -1 -15.2364 108.070 -15.4036 108.263 TC -15.5000 108.700 TC 60 981 3 225
1961051S12116 1961 21 SI WA NOT_NAMED 1961-02-24 15:00:00 TS -15.4169 108.224 main 850 850 P_____P__P__P_ SH211961 -15.1700 108.192 -1 -15.3672 107.999 -15.5227 108.157 TC -15.6075 108.550 TC 62 978 3 218
1961051S12116 1961 21 SI WA NOT_NAMED 1961-02-24 18:00:00 TS -15.5476 108.139 main 862 862 O_____P__P__O_ jtwc_sh SH211961 -15.3000 108.100 -1 -15.5290 107.974 -15.6612 108.083 TC -15.7000 108.400 TC 65 976 3 205
1961051S12116 1961 21 SI WA NOT_NAMED 1961-02-24 21:00:00 TS -15.7086 108.081 main 885 885 P_____P__P__P_ SH211961 -15.5125 108.028 -1 -15.7171 107.978 -15.8200 108.034 TC -15.7850 108.285 TC 70 973 4 193
1961051S12116 1961 21 SI WA NOT_NAMED 1961-02-25 00:00:00 TS -15.9066 108.049 main 908 908 O_____P__O__O_ jtwc_sh SH211961 -15.8000 108.000 -1 -15.9264 107.995 -16.0000 108.000 TC 70 970 -15.9000 108.200 TC 75 971 4 189
1961051S12116 1961 21 SI WA NOT_NAMED 1961-02-25 01:00:00 TS -15.9790 108.039 970 bom main 912 904 P_____O__P__P_ SH211961 -15.9079 108.008 -1 -16.0000 108.000 970 -16.0581 107.975 TC -15.9500 108.175 TC 75 970 5 191
1961051S12116 1961 21 SI WA NOT_NAMED 1961-02-25 03:00:00 TS -16.1297 108.017 main 904 880 P_____P__P__P_ SH211961 -16.1425 108.042 -1 -16.1249 107.959 -16.1815 107.932 TC -16.0700 108.135 TC 75 970 5 185
1961051S12116 1961 21 SI WA NOT_NAMED 1961-02-25 06:00:00 TS -16.3791 108.000 main 880 864 O_____P__P__O_ jtwc_sh SH211961 -16.5000 108.100 -1 -16.3321 107.913 -16.3842 107.888 TC -16.3000 108.100 TC 75 970 5 185
1961051S12116 1961 21 SI WA NOT_NAMED 1961-02-25 09:00:00 TS -16.6422 107.987 main 864 841 P_____P__P__P_ SH211961 -16.8075 108.100 -1 -16.5617 107.884 -16.6073 107.862 TC -16.5925 108.100 TC 75 970 5 182
1961051S12116 1961 21 SI WA NOT_NAMED 1961-02-25 12:00:00 TS -16.9155 107.980 main 841 819 O_____P__P__O_ jtwc_sh SH211961 -17.1000 108.100 -1 -16.8121 107.870 -16.8499 107.852 TC -16.9000 108.100 TC 75 970 5 0
1961051S12116 1961 21 SI WA NOT_NAMED 1961-02-25 15:00:00 TS -17.1877 107.980 main 819 804 P_____P__P__P_ SH211961 -17.4000 108.150 -1 -17.0819 107.866 -17.1113 107.855 TC -17.1575 108.050 TC 75 970 6 179
1961051S12116 1961 21 SI WA NOT_NAMED 1961-02-25 18:00:00 TS -17.4650 107.984 main 797 783 O_____P__P__O_ jtwc_sh SH211961 -17.7000 108.200 -1 -17.3693 107.871 -17.3906 107.866 TC -17.4000 108.000 TC 75 970 6 0
1961051S12116 1961 21 SI WA NOT_NAMED 1961-02-25 21:00:00 TS -17.7450 107.993 main 783 763 P_____P__P__P_ SH211961 -17.9850 108.215 -1 -17.6729 107.882 -17.6871 107.882 TC -17.6350 107.992 TC 75 970 6 179
1961051S12116 1961 21 SI WA NOT_NAMED 1961-02-26 00:00:00 TS -18.0477 107.999 main 763 757 O_____P__O__O_ jtwc_sh SH211961 -18.3000 108.200 -1 -17.9910 107.895 -18.0000 107.900 TC 70 970 -17.9000 108.000 TC 75 970 6 178
1961051S12116 1961 21 SI WA NOT_NAMED 1961-02-26 01:00:00 TS -18.1598 107.997 970 bom main 750 738 P_____O__P__P_ SH211961 -18.4245 108.186 -1 -18.1000 107.900 970 4 -18.1093 107.901 TC -18.0052 108.000 TC 75 970 7 182
1961051S12116 1961 21 SI WA NOT_NAMED 1961-02-26 03:00:00 TS -18.3970 107.989 main 738 720 P_____P__P__P_ SH211961 -18.6925 108.150 -1 -18.3247 107.903 -18.3360 107.905 TC -18.2350 108.000 TC 75 970 7 0
1961051S12116 1961 21 SI WA NOT_NAMED 1961-02-26 06:00:00 TS -18.7678 107.981 main 715 698 O_____P__P__O_ jtwc_sh SH211961 -19.1000 108.100 -1 -18.6785 107.911 -18.6928 107.914 TC -18.6000 108.000 TC 75 971 7 0
1961051S12116 1961 21 SI WA NOT_NAMED 1961-02-26 09:00:00 TS -19.1333 107.984 main 698 676 P_____P__P__P_ SH211961 -19.4725 108.092 -1 -19.0469 107.923 -19.0639 107.927 TC -18.9500 107.993 TC 72 972 7 178
1961051S12116 1961 21 SI WA NOT_NAMED 1961-02-26 12:00:00 TS -19.4916 107.995 main 676 659 O_____P__P__O_ jtwc_sh SH211961 -19.8000 108.100 -1 -19.4237 107.937 -19.4425 107.942 TC -19.3000 108.000 TC 70 974 7 177
1961051S12116 1961 21 SI WA NOT_NAMED 1961-02-26 15:00:00 TS -19.8312 108.015 main 659 643 P_____P__P__P_ SH211961 -20.0575 108.100 -1 -19.8025 107.953 -19.8221 107.958 TC -19.6425 108.050 TC 67 975 7 176
1961051S12116 1961 21 SI WA NOT_NAMED 1961-02-26 18:00:00 TS -20.1683 108.036 main 638 624 O_____P__P__O_ jtwc_sh SH211961 -20.3000 108.100 -1 -20.1772 107.969 -20.1960 107.974 TC -20.0000 108.100 TC 65 976 7 179
1961051S12116 1961 21 SI WA NOT_NAMED 1961-02-26 21:00:00 TS -20.5266 108.045 main 624 608 P_____P__P__P_ SH211961 -20.5925 108.100 -1 -20.5414 107.984 -20.5575 107.988 TC -20.4150 108.108 TC 65 977 7 178
1961051S12116 1961 21 SI WA NOT_NAMED 1961-02-27 00:00:00 TS -20.8722 108.049 main 608 595 O_____P__O__O_ jtwc_sh SH211961 -20.9000 108.100 -1 -20.8889 107.996 -20.9000 108.000 TC 60 980 -20.8000 108.100 TC 65 979 7 0
1961051S12116 1961 21 SI WA NOT_NAMED 1961-02-27 01:00:00 TS -20.9725 108.050 980 bom main 595 591 P_____O__P__P_ SH211961 -21.0000 108.100 -1 -21.0000 108.000 980 -20.9923 108.002 TC -20.8978 108.100 TC 64 979 6 0
1961051S12116 1961 21 SI WA NOT_NAMED 1961-02-27 03:00:00 TS -21.1526 108.052 main 588 582 P_____P__P__P_ SH211961 -21.2000 108.100 -1 -21.1772 108.003 -21.1681 108.005 TC -21.0650 108.100 TC 62 979 5 0
1961051S12116 1961 21 SI WA NOT_NAMED 1961-02-27 06:00:00 TS -21.4097 108.054 main 582 575 O_____P__P__O_ jtwc_sh SH211961 -21.5000 108.100 -1 -21.4231 108.007 -21.4155 108.007 TC -21.3000 108.100 TC 60 980 5 179
1961051S12116 1961 21 SI WA NOT_NAMED 1961-02-27 09:00:00 TS -21.6804 108.056 main 575 571 P_____P__P__P_ SH211961 -21.8150 108.107 -1 -21.6547 108.008 -21.6517 108.008 TC -21.6000 108.100 TC 60 980 5 0
1961051S12116 1961 21 SI WA NOT_NAMED 1961-02-27 12:00:00 TS -21.9423 108.054 main 571 569 O_____P__P__O_ jtwc_sh SH211961 -22.1000 108.100 -1 -21.8830 108.008 -21.8863 108.008 TC -21.9000 108.100 TC 60 980 5 0
1961051S12116 1961 21 SI WA NOT_NAMED 1961-02-27 15:00:00 TS -22.1782 108.041 main 577 575 P_____P__P__P_ SH211961 -22.3075 108.050 -1 -22.1188 108.007 -22.1289 108.006 TC -22.1575 108.100 TC 60 980 5 0
1961051S12116 1961 21 SI WA NOT_NAMED 1961-02-27 18:00:00 TS -22.4155 108.027 main 575 574 O_____P__P__O_ jtwc_sh SH211961 -22.5000 108.000 -1 -22.3732 108.005 -22.3889 108.004 TC -22.4000 108.100 TC 60 980 5 0
1961051S12116 1961 21 SI WA NOT_NAMED 1961-02-27 21:00:00 TS -22.6664 108.026 main 574 569 P_____P__P__P_ SH211961 -22.7125 108.000 -1 -22.6569 108.003 -22.6761 108.002 TC -22.6200 108.100 TC 60 980 6 183
1961051S12116 1961 21 SI WA NOT_NAMED 1961-02-28 00:00:00 TS -22.9703 108.025 main 569 567 O_____P__O__O_ jtwc_sh SH211961 -23.0000 108.000 -1 -22.9811 108.001 -23.0000 108.000 TC 60 980 -22.9000 108.100 TC 60 980 6 0
1961051S12116 1961 21 SI WA NOT_NAMED 1961-02-28 01:00:00 TS -23.0946 108.020 980 bom main 567 559 P_____O__P__P_ SH211961 -23.1245 107.986 -1 -23.1000 108.000 980 -23.1293 107.992 TC -23.0245 108.100 TC 60 980 8 0
1961051S12116 1961 21 SI WA NOT_NAMED 1961-02-28 03:00:00 TS -23.3779 108.006 main 559 551 P_____P__P__P_ SH211961 -23.4125 107.950 -1 -23.3847 108.000 -23.4018 107.975 TC -23.3125 108.100 TC 60 980 9 183
1961051S12116 1961 21 SI WA NOT_NAMED 1961-02-28 06:00:00 TS -23.8481 107.987 main 551 546 O_____P__P__O_ jtwc_sh SH211961 -23.9000 107.900 -1 -23.8505 108.000 -23.8417 107.946 TC -23.8000 108.100 TC 60 980 10 181
1961051S12116 1961 21 SI WA NOT_NAMED 1961-02-28 09:00:00 TS -24.3380 107.977 main 546 546 P_____P__P__P_ SH211961 -24.3925 107.892 -1 -24.3531 108.000 -24.3138 107.916 TC -24.2925 108.100 TC 60 980 10 0
1961051S12116 1961 21 SI WA NOT_NAMED 1961-02-28 12:00:00 TS -24.8483 107.972 main 547 538 O_____P__P__O_ jtwc_sh SH211961 -24.9000 107.900 -1 -24.8814 108.000 -24.8117 107.889 TC -24.8000 108.100 TC 60 980 10 0
1961051S12116 1961 21 SI WA NOT_NAMED 1961-02-28 15:00:00 TS -25.3616 107.965 main 536 529 P_____P__P__P_ SH211961 -25.4000 107.893 -1 -25.4245 108.000 -25.3294 107.868 TC -25.2925 108.100 TC 60 980 10 180
1961051S12116 1961 21 SI WA NOT_NAMED 1961-02-28 18:00:00 TS -25.8830 107.964 main 529 527 O_____P__P__O_ jtwc_sh SH211961 -25.9000 107.900 -1 -25.9714 108.000 -25.8608 107.858 TC -25.8000 108.100 TC 60 980 11 179
1961051S12116 1961 21 SI WA NOT_NAMED 1961-02-28 21:00:00 TS -26.4170 107.974 main 527 527 P_____P__P__P_ SH211961 -26.4000 107.935 -1 -26.5109 108.000 -26.3996 107.862 TC -26.3575 108.100 TC 60 980 11 178
1961051S12116 1961 21 SI WA NOT_NAMED 1961-03-01 00:00:00 TS -26.9430 107.996 main 530 530 O_____P__P__O_ jtwc_sh SH211961 -26.9000 108.000 -1 -27.0322 108.000 -26.9398 107.884 TC -26.9000 108.100 TC 60 980 10 179
1961051S12116 1961 21 SI WA NOT_NAMED 1961-03-01 01:00:00 TS -27.1111 108.005 980 bom main 533 533 P_____O__P__P_ SH211961 -27.0667 108.030 -1 -27.2000 108.000 980 -27.1191 107.896 TC -27.0588 108.092 TC 60 980 10 178
1961051S12116 1961 21 SI WA NOT_NAMED 1961-03-01 03:00:00 TS -27.4385 108.025 main 539 537 P_____P__P__P_ SH211961 -27.4000 108.100 -1 -27.5211 107.992 980 -27.4753 107.929 TC -27.3575 108.078 TC 60 980 10 176
1961051S12116 1961 21 SI WA NOT_NAMED 1961-03-01 06:00:00 TS -27.9250 108.075 980 bom main 544 544 O_____O__O__O_ jtwc_sh SH211961 -27.9000 108.200 -1 -28.0000 108.000 980 -28.0000 108.000 TC 60 980 -27.8000 108.100 TC 60 980 10 173
1961051S12116 1961 21 SI WA NOT_NAMED 1961-03-01 09:00:00 TS -28.4210 108.157 main 555 555 P_____P__P__P_ SH211961 -28.4000 108.243 -1 -28.4820 108.059 -28.5093 108.101 TC -28.2925 108.227 TC 60 981 10 170
1961051S12116 1961 21 SI WA NOT_NAMED 1961-03-01 12:00:00 TS -28.9182 108.274 main 571 571 O_____P__P__O_ jtwc_sh SH211961 -28.9000 108.300 -1 -28.9681 108.167 -29.0045 108.227 TC -28.8000 108.400 TC 60 982 10 167
1961051S12116 1961 21 SI WA NOT_NAMED 1961-03-01 15:00:00 TS -29.4096 108.417 main 583 576 P_____P__P__P_ SH211961 -29.3925 108.428 -1 -29.4574 108.316 -29.4885 108.375 TC -29.3000 108.550 TC 57 983 10 165
1961051S12116 1961 21 SI WA NOT_NAMED 1961-03-01 18:00:00 TS -29.9062 108.580 main 579 578 O_____P__P__O_ jtwc_sh SH211961 -29.9000 108.600 -1 -29.9489 108.499 -29.9639 108.540 TC -29.8000 108.700 TC 55 985 10 164
1961051S12116 1961 21 SI WA NOT_NAMED 1961-03-01 21:00:00 TS -30.4120 108.760 main 582 582 P_____P__P__P_ SH211961 -30.4349 108.778 -1 -30.4419 108.704 -30.4335 108.717 TC -30.3000 108.850 TC 52 986 11 162
1961051S12116 1961 21 SI WA NOT_NAMED 1961-03-02 00:00:00 TS -30.9464 108.969 main 582 582 O_____P__O__O_ jtwc_sh SH211961 -31.0000 109.000 -1 -30.9355 108.925 -30.9000 108.900 TC 45 990 -30.8000 109.000 TC 50 988 12 161
1961051S12116 1961 21 SI WA NOT_NAMED 1961-03-02 01:00:00 NR -31.1733 109.067 990 bom main 577 565 P_____O_______ SH211961 -31.1916 109.084 -1 -31.1000 109.000 990 TC TC 14 158
1961051S12116 1961 21 SI WA NOT_NAMED 1961-03-02 03:00:00 NR -31.5849 109.270 main 565 526 P_____________ SH211961 -31.5849 109.270 -1 TC TC 14 156
1961051S12116 1961 21 SI WA NOT_NAMED 1961-03-02 06:00:00 NR -32.2000 109.600 main 526 472 O_____________ jtwc_sh SH211961 -32.2000 109.600 -1 TC 14 155
1961051S12116 1961 21 SI WA NOT_NAMED 1961-03-02 09:00:00 NR -32.8499 109.978 main 472 425 P_____________ SH211961 -32.8499 109.978 -1 TC 15 153
1961051S12116 1961 21 SI WA NOT_NAMED 1961-03-02 12:00:00 NR -33.5000 110.400 main 425 385 O_____________ jtwc_sh SH211961 -33.5000 110.400 -1 TC 15 150
1961051S12116 1961 21 SI WA NOT_NAMED 1961-03-02 15:00:00 NR -34.1128 110.844 main 385 345 P_____________ SH211961 -34.1128 110.844 -1 TC 14 148
1961051S12116 1961 21 SI WA NOT_NAMED 1961-03-02 18:00:00 NR -34.7000 111.300 main 345 O_____________ jtwc_sh SH211961 -34.7000 111.300 -1 14 147

IBTrACS Databaseについて

本データベースは、米国NOAAが公開する1842年以降の世界の熱帯低気圧のベストトラックデータアーカイブInternational Best Track Archive for Climate Stewardship (IBTrACS)を、ウェブで閲覧しやすい形式に変換したものです。

最終更新日:2021-12-03